Time;durP1;ratioP1;P1;durP2;ratioP2;P2;SDS_P1;SDS_P2;PMS_P1;PMS_P2;Temp;Humidity;BMP_temperature;BMP_pressure;BME280_temperature;BME280_humidity;BME280_pressure;Samples;Min_cycle;Max_cycle;Signal;HPM_P1;HPM_P2
2024/02/18 00:01:45;;;;;;;3.55;0.50;;;;;;;;;;5065588;28;20021;-79
2024/02/18 00:04:11;;;;;;;11.35;1.08;;;10.30;99.90;;;;;;5067621;28;20035;-79
2024/02/18 00:06:37;;;;;;;2.92;0.73;;;10.30;99.90;;;;;;5067495;28;20021;-79
2024/02/18 00:09:02;;;;;;;22.90;2.30;;;10.30;99.90;;;;;;5070229;28;20060;-80
2024/02/18 00:11:29;;;;;;;7.45;0.80;;;;;;;;;;5071339;28;20013;-80
2024/02/18 00:13:54;;;;;;;10.27;1.08;;;10.30;99.90;;;;;;5070502;28;20032;-79
2024/02/18 00:16:20;;;;;;;4.70;1.42;;;10.30;99.90;;;;;;5069523;28;20037;-79
2024/02/18 00:18:45;;;;;;;7.22;1.05;;;10.30;99.90;;;;;;5069764;28;20029;-79
2024/02/18 00:21:18;;;;;;;7.72;1.58;;;10.30;99.90;;;;;;5069540;28;20111;-79
2024/02/18 00:23:47;;;;;;;4.70;0.98;;;10.30;99.90;;;;;;5069402;28;20057;-79
2024/02/18 00:26:13;;;;;;;6.78;0.70;;;10.30;99.90;;;;;;5070061;28;20071;-79
2024/02/18 00:28:39;;;;;;;6.53;1.88;;;10.30;99.90;;;;;;5070677;28;20024;-79
2024/02/18 00:31:04;;;;;;;6.18;1.55;;;10.30;99.90;;;;;;5068961;28;20028;-79
2024/02/18 00:33:30;;;;;;;11.63;1.92;;;;;;;;;;5068468;28;20017;-79
2024/02/18 00:35:56;;;;;;;4.15;0.95;;;;;;;;;;5069458;28;20025;-79
2024/02/18 00:38:22;;;;;;;7.15;1.30;;;10.30;99.90;;;;;;5070035;28;20057;-78
2024/02/18 00:40:48;;;;;;;2.90;0.90;;;10.30;99.90;;;;;;5069097;28;20051;-79
2024/02/18 00:43:13;;;;;;;8.68;0.98;;;10.30;99.90;;;;;;5068549;28;20028;-79
2024/02/18 00:45:39;;;;;;;6.63;0.88;;;10.30;99.90;;;;;;5069381;28;20387;-79
2024/02/18 00:48:05;;;;;;;8.48;1.33;;;10.30;99.90;;;;;;5067529;28;20036;-79
2024/02/18 00:50:31;;;;;;;8.45;0.70;;;10.30;99.90;;;;;;5069633;28;20043;-79
2024/02/18 00:52:56;;;;;;;4.93;0.50;;;10.50;99.90;;;;;;5068459;28;20021;-79
2024/02/18 00:55:22;;;;;;;12.65;1.35;;;10.40;99.90;;;;;;5067333;28;20056;-79
2024/02/18 00:57:48;;;;;;;10.35;1.08;;;10.40;99.90;;;;;;5067600;28;20021;-79
2024/02/18 01:00:13;;;;;;;2.78;0.60;;;10.40;99.90;;;;;;5068979;28;20021;-79
2024/02/18 01:02:39;;;;;;;12.25;1.35;;;10.40;99.90;;;;;;5067199;28;20028;-79
2024/02/18 01:05:05;;;;;;;8.75;1.00;;;10.40;99.90;;;;;;5060949;28;20051;-78
2024/02/18 01:07:30;;;;;;;6.82;1.27;;;10.40;99.90;;;;;;5057011;28;20028;-81
2024/02/18 01:09:56;;;;;;;7.43;1.27;;;10.40;99.90;;;;;;5059655;28;20073;-80
2024/02/18 01:12:22;;;;;;;10.27;1.33;;;10.50;99.90;;;;;;5058909;28;20025;-78
2024/02/18 01:14:47;;;;;;;7.78;0.93;;;10.50;99.90;;;;;;5055149;28;20499;-79
2024/02/18 01:17:13;;;;;;;6.88;0.60;;;10.50;99.90;;;;;;5064047;28;20025;-80
2024/02/18 01:19:38;;;;;;;6.47;0.93;;;10.50;99.90;;;;;;5055261;28;20025;-78
2024/02/18 01:22:04;;;;;;;6.80;1.13;;;10.60;99.90;;;;;;5056085;28;20017;-79
2024/02/18 01:24:30;;;;;;;6.82;0.85;;;;;;;;;;5055142;28;20087;-79
2024/02/18 01:26:56;;;;;;;8.25;0.88;;;10.60;99.90;;;;;;5055866;28;20052;-79
2024/02/18 01:29:22;;;;;;;8.50;1.27;;;10.50;99.90;;;;;;5054768;28;20108;-79
2024/02/18 01:31:49;;;;;;;5.63;1.17;;;10.60;99.90;;;;;;5065071;28;20029;-79
2024/02/18 01:34:15;;;;;;;5.72;0.93;;;;;;;;;;5065753;28;20108;-79
2024/02/18 01:36:41;;;;;;;3.38;0.52;;;10.60;99.90;;;;;;5065932;28;20036;-79
2024/02/18 01:39:07;;;;;;;5.43;0.77;;;10.70;99.90;;;;;;5067173;28;20025;-79
2024/02/18 01:41:33;;;;;;;6.82;1.08;;;10.70;99.90;;;;;;5066284;28;20051;-79
2024/02/18 01:43:59;;;;;;;3.40;0.75;;;10.60;99.90;;;;;;5067468;28;20017;-79
2024/02/18 01:46:25;;;;;;;5.30;0.40;;;10.70;99.90;;;;;;5067246;28;20012;-79
2024/02/18 01:48:51;;;;;;;12.73;0.77;;;10.60;99.90;;;;;;5066156;28;20392;-79
2024/02/18 01:51:18;;;;;;;9.50;1.20;;;10.70;99.90;;;;;;5066715;28;20081;-79
2024/02/18 01:53:44;;;;;;;4.82;0.60;;;10.70;99.90;;;;;;5066245;28;20480;-79
2024/02/18 01:56:11;;;;;;;2.25;0.52;;;10.70;99.90;;;;;;5065321;28;20021;-79
2024/02/18 01:58:38;;;;;;;6.53;0.55;;;10.70;99.90;;;;;;5067784;28;20052;-79
2024/02/18 02:01:03;;;;;;;8.40;0.40;;;10.70;99.90;;;;;;5066096;28;20396;-79
2024/02/18 02:03:30;;;;;;;12.55;0.73;;;10.60;99.90;;;;;;5065588;28;20025;-79
2024/02/18 02:05:58;;;;;;;5.72;0.60;;;;;;;;;;5065520;28;20015;-80
2024/02/18 02:08:26;;;;;;;8.15;0.88;;;10.70;99.90;;;;;;5065886;28;20039;-79
2024/02/18 02:10:52;;;;;;;5.43;0.77;;;10.70;99.90;;;;;;5065259;28;20021;-79
2024/02/18 02:13:17;;;;;;;3.50;0.40;;;10.70;99.90;;;;;;5065320;28;20056;-80
2024/02/18 02:15:43;;;;;;;9.65;1.05;;;10.70;99.90;;;;;;5067473;28;20025;-79
2024/02/18 02:18:09;;;;;;;7.20;1.35;;;10.70;99.90;;;;;;5065438;28;20051;-79
2024/02/18 02:20:35;;;;;;;3.40;0.90;;;;;;;;;;5066336;28;20021;-79
2024/02/18 02:23:00;;;;;;;3.17;0.20;;;10.70;99.90;;;;;;5066335;28;20063;-79
2024/02/18 02:25:26;;;;;;;8.73;0.50;;;10.70;99.90;;;;;;5065746;28;20017;-79
2024/02/18 02:28:14;;;;;;;5.25;0.43;;;10.80;99.90;;;;;;5064789;28;20025;-79
2024/02/18 02:30:40;;;;;;;2.15;0.30;;;10.70;99.90;;;;;;5064479;28;20028;-79
2024/02/18 02:33:07;;;;;;;7.40;0.57;;;10.80;99.90;;;;;;5066306;28;20025;-79
2024/02/18 02:35:33;;;;;;;3.35;0.70;;;10.80;99.90;;;;;;5066657;28;20025;-79
2024/02/18 02:37:58;;;;;;;6.47;0.60;;;10.80;99.90;;;;;;5064672;28;20083;-79
2024/02/18 02:40:25;;;;;;;3.80;0.50;;;10.80;99.90;;;;;;5065171;28;20085;-79
2024/02/18 02:42:51;;;;;;;6.57;0.45;;;10.80;99.90;;;;;;5066090;28;20108;-79
2024/02/18 02:45:17;;;;;;;1.65;0.20;;;10.80;99.90;;;;;;5065196;28;20079;-79
2024/02/18 02:47:43;;;;;;;5.38;0.25;;;;;;;;;;5065991;28;20029;-79
2024/02/18 02:50:09;;;;;;;1.63;0.25;;;10.70;99.90;;;;;;5066311;28;20032;-79
2024/02/18 02:52:34;;;;;;;3.78;0.55;;;10.80;99.90;;;;;;5066387;28;20535;-79
2024/02/18 02:55:00;;;;;;;9.48;1.55;;;10.90;99.90;;;;;;5066460;28;20033;-79
2024/02/18 02:57:26;;;;;;;3.60;0.60;;;;;;;;;;5064661;28;20024;-79
2024/02/18 02:59:51;;;;;;;5.47;0.90;;;10.70;99.90;;;;;;5064869;28;20075;-79
2024/02/18 03:02:17;;;;;;;1.20;0.52;;;10.70;99.90;;;;;;5064833;28;20028;-79
2024/02/18 03:04:43;;;;;;;2.85;0.40;;;10.70;99.90;;;;;;5064638;28;20511;-79
2024/02/18 03:07:08;;;;;;;2.30;0.40;;;10.70;99.90;;;;;;5064948;28;20472;-79
2024/02/18 03:09:34;;;;;;;3.90;0.60;;;;;;;;;;5065587;28;20013;-79
2024/02/18 03:12:02;;;;;;;5.13;0.82;;;;;;;;;;5067831;28;20036;-79
2024/02/18 03:14:28;;;;;;;8.57;0.57;;;;;;;;;;5065448;28;20032;-79
2024/02/18 03:16:56;;;;;;;7.53;1.38;;;10.60;99.90;;;;;;5064914;28;20060;-79
2024/02/18 03:19:21;;;;;;;4.87;1.17;;;10.70;99.90;;;;;;5066225;28;20048;-79
2024/02/18 03:21:47;;;;;;;3.60;0.63;;;10.60;99.90;;;;;;5066812;28;20025;-79
2024/02/18 03:24:13;;;;;;;5.65;0.17;;;10.50;99.90;;;;;;5066317;28;20060;-79
2024/02/18 03:26:38;;;;;;;6.40;0.88;;;10.50;99.90;;;;;;5065300;28;20045;-79
2024/02/18 03:29:04;;;;;;;2.08;0.45;;;10.50;99.90;;;;;;5065579;28;20028;-79
2024/02/18 03:31:29;;;;;;;6.75;0.52;;;10.40;99.90;;;;;;5066281;28;20401;-79
2024/02/18 03:33:56;;;;;;;5.18;0.55;;;10.40;99.90;;;;;;5064856;28;20033;-79
2024/02/18 03:36:22;;;;;;;5.13;0.30;;;10.40;99.90;;;;;;5063711;28;20404;-80
2024/02/18 03:38:47;;;;;;;5.00;0.32;;;10.40;99.90;;;;;;5066070;28;20025;-78
2024/02/18 03:41:13;;;;;;;2.88;0.10;;;10.30;99.90;;;;;;5064677;28;20104;-79
2024/02/18 03:43:39;;;;;;;4.75;0.90;;;10.30;99.90;;;;;;5068923;28;20024;-81
2024/02/18 03:46:05;;;;;;;1.60;0.20;;;10.30;99.90;;;;;;5069438;28;20017;-79
2024/02/18 03:48:31;;;;;;;6.38;0.17;;;;;;;;;;5067528;28;20396;-79
2024/02/18 03:50:57;;;;;;;2.65;0.40;;;10.20;99.90;;;;;;5068596;28;20025;-79
2024/02/18 03:53:22;;;;;;;2.78;0.30;;;10.20;99.90;;;;;;5068210;28;20032;-81
2024/02/18 03:55:49;;;;;;;5.75;0.30;;;10.20;99.90;;;;;;5071410;28;20400;-81
2024/02/18 03:58:15;;;;;;;5.63;0.57;;;10.10;99.90;;;;;;5069384;28;20032;-79
2024/02/18 04:00:46;;;;;;;2.70;0.45;;;10.20;99.90;;;;;;5067596;28;20013;-80
2024/02/18 04:03:14;;;;;;;0.73;0.25;;;10.10;99.90;;;;;;5070401;28;20009;-81
2024/02/18 04:05:43;;;;;;;3.72;0.45;;;10.10;99.90;;;;;;5069325;28;20048;-81
2024/02/18 04:08:09;;;;;;;;;;;10.00;99.90;;;;;;5069254;28;20029;-79
2024/02/18 04:10:34;;;;;;;11.07;0.63;;;10.10;99.90;;;;;;5066932;28;19905;-78
2024/02/18 04:13:00;;;;;;;4.03;0.20;;;10.10;99.90;;;;;;5066266;28;20040;-79
2024/02/18 04:15:26;;;;;;;5.63;0.98;;;10.10;99.90;;;;;;5068628;28;20001;-80
2024/02/18 04:17:54;;;;;;;3.47;0.17;;;10.10;99.90;;;;;;5069002;28;20021;-81
2024/02/18 04:20:19;;;;;;;4.32;0.30;;;10.00;99.90;;;;;;5069192;28;20024;-80
2024/02/18 04:22:45;;;;;;;1.08;0.10;;;;;;;;;;5069062;28;20050;-81
2024/02/18 04:25:11;;;;;;;3.40;0.60;;;10.00;99.90;;;;;;5070557;28;20032;-81
2024/02/18 04:27:37;;;;;;;2.58;0.70;;;10.00;99.90;;;;;;5069480;28;20025;-81
2024/02/18 04:30:03;;;;;;;3.05;0.57;;;10.00;99.90;;;;;;5068508;28;20037;-80
2024/02/18 04:32:29;;;;;;;5.18;0.17;;;10.00;99.90;;;;;;5069514;28;20028;-81
2024/02/18 04:34:54;;;;;;;2.10;0.30;;;10.00;99.90;;;;;;5068334;28;20025;-81
2024/02/18 04:37:20;;;;;;;8.10;0.10;;;9.90;99.90;;;;;;5069167;28;20025;-81
2024/02/18 04:39:46;;;;;;;1.48;0.17;;;9.80;99.90;;;;;;5069703;28;20021;-81
2024/02/18 04:42:11;;;;;;;3.20;0.75;;;9.90;99.90;;;;;;5069577;28;20400;-81
2024/02/18 04:44:37;;;;;;;3.92;0.30;;;9.90;99.90;;;;;;5068628;28;20037;-81
2024/02/18 04:47:03;;;;;;;7.10;0.40;;;9.90;99.90;;;;;;5069260;28;20035;-81
2024/02/18 04:49:28;;;;;;;5.50;0.10;;;9.80;99.90;;;;;;5069556;28;20025;-80
2024/02/18 04:51:54;;;;;;;1.50;0.20;;;10.90;99.90;;;;;;5068427;28;20017;-81
2024/02/18 04:54:20;;;;;;;4.88;0.70;;;;;;;;;;5069939;28;20033;-81
2024/02/18 04:56:45;;;;;;;1.70;0.32;;;9.90;99.90;;;;;;5068849;28;20029;-81
2024/02/18 04:59:11;;;;;;;2.45;0.20;;;9.90;99.90;;;;;;5068904;28;20083;-81
2024/02/18 05:01:37;;;;;;;4.80;0.50;;;9.90;99.90;;;;;;5069982;28;20021;-80
2024/02/18 05:04:03;;;;;;;11.30;0.93;;;9.90;99.90;;;;;;5068718;28;20024;-81
2024/02/18 05:06:28;;;;;;;3.88;0.25;;;9.90;99.90;;;;;;5068448;28;20014;-81
2024/02/18 05:08:54;;;;;;;3.95;0.77;;;9.90;99.90;;;;;;5068222;28;20022;-79
2024/02/18 05:11:21;;;;;;;8.43;0.38;;;9.90;99.90;;;;;;5068257;28;20270;-81
2024/02/18 05:13:46;;;;;;;2.97;0.30;;;9.90;99.90;;;;;;5068606;28;20017;-80
2024/02/18 05:16:12;;;;;;;4.03;0.38;;;9.80;99.90;;;;;;5068363;28;20025;-81
2024/02/18 05:18:38;;;;;;;2.67;0.30;;;9.90;99.90;;;;;;5068209;28;20028;-81
2024/02/18 05:21:04;;;;;;;6.10;0.47;;;9.90;99.90;;;;;;5069051;28;20013;-81
2024/02/18 05:23:32;;;;;;;3.50;0.32;;;9.90;99.90;;;;;;5067551;28;20055;-80
2024/02/18 05:25:57;;;;;;;5.97;0.63;;;9.90;99.90;;;;;;5067180;28;20463;-80
2024/02/18 05:28:24;;;;;;;7.50;0.70;;;9.90;99.90;;;;;;5068925;28;20025;-80
2024/02/18 05:30:49;;;;;;;5.20;0.20;;;9.90;99.90;;;;;;5067167;28;20029;-81
2024/02/18 05:33:15;;;;;;;4.25;0.25;;;9.80;99.90;;;;;;5067333;28;20031;-80
2024/02/18 05:35:40;;;;;;;8.73;0.50;;;9.90;99.90;;;;;;5067412;28;20033;-81
2024/02/18 05:38:07;;;;;;;6.05;0.63;;;9.90;99.90;;;;;;5068229;28;20017;-81
2024/02/18 05:40:32;;;;;;;3.60;0.30;;;9.90;99.90;;;;;;5067889;28;20031;-81
2024/02/18 05:42:58;;;;;;;4.47;0.20;;;10.00;99.90;;;;;;5069108;28;20464;-80
2024/02/18 05:45:30;;;;;;;5.68;1.70;;;;;;;;;;5068212;28;20088;-80
2024/02/18 05:47:56;;;;;;;7.20;0.32;;;9.80;99.90;;;;;;5067669;28;20036;-80
2024/02/18 05:50:22;;;;;;;3.60;0.77;;;9.80;99.90;;;;;;5068360;28;20380;-80
2024/02/18 05:52:48;;;;;;;3.08;0.20;;;9.70;99.90;;;;;;5067309;28;20049;-81
2024/02/18 05:55:13;;;;;;;9.48;0.68;;;9.70;99.90;;;;;;5067593;28;20017;-80
2024/02/18 05:57:39;;;;;;;6.35;0.28;;;9.60;99.90;;;;;;5067349;28;20024;-81
2024/02/18 06:00:05;;;;;;;5.45;0.55;;;;;;;;;;5068088;28;20001;-81
2024/02/18 06:02:31;;;;;;;7.80;0.40;;;9.70;99.90;;;;;;5067396;28;20055;-81
2024/02/18 06:04:56;;;;;;;7.75;0.65;;;9.70;99.90;;;;;;5065577;28;20021;-81
2024/02/18 06:07:22;;;;;;;4.65;0.50;;;9.70;99.90;;;;;;5068529;28;20025;-80
2024/02/18 06:09:48;;;;;;;6.30;1.17;;;9.60;99.90;;;;;;5066685;28;20032;-80
2024/02/18 06:12:14;;;;;;;5.18;0.82;;;9.60;99.90;;;;;;5068042;28;20029;-81
2024/02/18 06:14:40;;;;;;;2.80;0.45;;;9.60;99.90;;;;;;5068039;28;20052;-81
2024/02/18 06:17:05;;;;;;;5.25;0.47;;;9.60;99.90;;;;;;5066852;28;20032;-81
2024/02/18 06:19:31;;;;;;;4.93;1.10;;;9.60;99.90;;;;;;5068811;28;20025;-80
2024/02/18 06:21:57;;;;;;;5.47;0.47;;;9.70;99.90;;;;;;5068349;28;20073;-80
2024/02/18 06:24:27;;;;;;;6.32;1.38;;;9.70;99.90;;;;;;5066151;28;20116;-81
2024/02/18 06:26:53;;;;;;;6.57;0.30;;;9.60;99.90;;;;;;5067186;28;20025;-80
2024/02/18 06:29:19;;;;;;;5.00;0.77;;;9.60;99.90;;;;;;5066729;28;20480;-80
2024/02/18 06:31:44;;;;;;;5.90;0.40;;;9.60;99.90;;;;;;5065894;28;20025;-80
2024/02/18 06:34:10;;;;;;;4.78;0.70;;;9.60;99.90;;;;;;5067147;28;20048;-81
2024/02/18 06:36:37;;;;;;;4.85;0.55;;;9.50;99.90;;;;;;5066521;28;20383;-81
2024/02/18 06:39:03;;;;;;;2.00;0.50;;;9.50;99.90;;;;;;5068872;28;20024;-81
2024/02/18 06:41:30;;;;;;;7.18;0.77;;;9.50;99.90;;;;;;5066837;28;20009;-81
2024/02/18 06:43:56;;;;;;;7.88;0.70;;;9.50;99.90;;;;;;5067727;28;20028;-81
2024/02/18 06:46:21;;;;;;;5.05;0.20;;;9.50;99.90;;;;;;5067131;28;20379;-81
2024/02/18 06:48:51;;;;;;;3.35;0.30;;;;;;;;;;5066602;28;20093;-81
2024/02/18 06:51:17;;;;;;;8.13;1.02;;;9.50;99.90;;;;;;5066579;28;20017;-81
2024/02/18 06:53:43;;;;;;;7.32;0.35;;;9.40;99.90;;;;;;5066681;28;20025;-81
2024/02/18 06:56:08;;;;;;;4.53;0.30;;;9.50;99.90;;;;;;5066204;28;20385;-82
2024/02/18 06:58:34;;;;;;;3.50;0.17;;;9.40;99.90;;;;;;5066408;28;20021;-81
2024/02/18 07:00:59;;;;;;;1.95;0.17;;;9.40;99.90;;;;;;5066481;28;20024;-80
2024/02/18 07:03:25;;;;;;;9.00;0.85;;;;;;;;;;5067479;28;20021;-81
2024/02/18 07:05:51;;;;;;;3.78;0.50;;;9.40;99.90;;;;;;5066273;28;20025;-80
2024/02/18 07:08:17;;;;;;;2.40;0.20;;;9.30;99.90;;;;;;5064932;28;20029;-81
2024/02/18 07:10:42;;;;;;;4.10;0.45;;;9.30;99.90;;;;;;5065587;28;20005;-80
2024/02/18 07:13:08;;;;;;;3.80;0.28;;;9.30;99.90;;;;;;5065919;28;20036;-81
2024/02/18 07:15:34;;;;;;;4.63;0.63;;;9.30;99.90;;;;;;5065014;28;20044;-81
2024/02/18 07:17:59;;;;;;;4.57;0.35;;;9.30;99.90;;;;;;5067284;28;20029;-81
2024/02/18 07:20:25;;;;;;;7.32;1.33;;;9.30;99.90;;;;;;5068500;28;20048;-81
2024/02/18 07:22:50;;;;;;;5.15;0.60;;;9.30;99.90;;;;;;5029412;28;1131697;-80
2024/02/18 07:25:16;;;;;;;3.50;0.55;;;9.30;99.90;;;;;;5069599;28;20023;-80
2024/02/18 07:27:42;;;;;;;6.60;1.25;;;;;;;;;;5069061;28;20021;-80
2024/02/18 07:30:08;;;;;;;1.85;0.10;;;9.20;99.90;;;;;;5070087;28;20060;-80
2024/02/18 07:32:34;;;;;;;6.57;0.85;;;9.30;99.90;;;;;;5070966;28;20081;-81
2024/02/18 07:35:00;;;;;;;7.30;0.30;;;9.30;99.90;;;;;;5071339;28;20029;-80
2024/02/18 07:37:26;;;;;;;6.97;0.30;;;9.20;99.90;;;;;;5069580;28;20049;-81
2024/02/18 07:39:52;;;;;;;5.72;0.25;;;9.20;99.90;;;;;;5069584;28;20048;-81
2024/02/18 07:42:17;;;;;;;1.85;0.10;;;9.20;99.90;;;;;;5068802;28;20393;-81
2024/02/18 07:44:47;;;;;;;8.40;0.52;;;9.20;99.90;;;;;;5068710;28;20028;-81
2024/02/18 07:47:12;;;;;;;6.03;0.52;;;9.20;99.90;;;;;;5068282;28;20032;-81
2024/02/18 07:49:38;;;;;;;3.15;0.13;;;9.20;99.90;;;;;;5069968;28;20033;-81
2024/02/18 07:52:05;;;;;;;3.45;0.30;;;9.20;99.90;;;;;;5068607;28;20021;-81
2024/02/18 07:54:30;;;;;;;5.10;0.70;;;9.20;99.90;;;;;;5069084;28;20436;-81
2024/02/18 07:56:56;;;;;;;6.25;0.30;;;9.20;99.90;;;;;;5068378;28;20021;-81
2024/02/18 07:59:21;;;;;;;9.40;0.90;;;9.20;99.90;;;;;;5068492;28;20028;-81
2024/02/18 08:01:48;;;;;;;2.75;0.20;;;9.20;99.90;;;;;;5069952;28;20021;-80
2024/02/18 08:04:14;;;;;;;5.35;0.75;;;9.20;99.90;;;;;;5067774;28;20067;-80
2024/02/18 08:06:40;;;;;;;3.95;0.25;;;9.20;99.90;;;;;;5067282;28;20465;-81
2024/02/18 08:09:09;;;;;;;4.60;0.77;;;9.20;99.90;;;;;;5068554;28;20017;-81
2024/02/18 08:11:35;;;;;;;5.32;0.57;;;9.20;99.90;;;;;;5067310;28;20035;-81
2024/02/18 08:14:01;;;;;;;4.20;0.30;;;9.20;99.90;;;;;;5068317;28;20028;-81
2024/02/18 08:16:28;;;;;;;6.75;0.75;;;9.10;99.90;;;;;;5068373;28;20032;-81
2024/02/18 08:18:55;;;;;;;4.05;0.40;;;9.10;99.90;;;;;;5068084;28;20074;-81
2024/02/18 08:21:21;;;;;;;8.43;0.70;;;;;;;;;;5067806;28;20132;-81
2024/02/18 08:23:47;;;;;;;4.03;0.20;;;;;;;;;;5069778;28;20040;-81
2024/02/18 08:26:26;;;;;;;8.25;0.40;;;9.20;99.90;;;;;;5067025;28;20408;-82
2024/02/18 08:28:52;;;;;;;4.28;0.03;;;9.20;99.90;;;;;;5069245;28;20049;-81
2024/02/18 08:31:18;;;;;;;5.18;0.63;;;9.20;99.90;;;;;;5067330;28;20114;-81
2024/02/18 08:33:45;;;;;;;5.70;0.85;;;9.20;99.90;;;;;;5067381;28;20017;-81
2024/02/18 08:36:11;;;;;;;6.38;0.30;;;9.20;99.90;;;;;;5069274;28;20032;-81
2024/02/18 08:38:38;;;;;;;9.57;0.95;;;9.20;99.90;;;;;;5069468;28;20036;-81
2024/02/18 08:41:04;;;;;;;4.75;0.30;;;9.20;99.90;;;;;;5068097;28;20036;-81
2024/02/18 08:43:30;;;;;;;9.13;0.30;;;9.20;99.90;;;;;;5066782;28;20025;-80
2024/02/18 08:45:55;;;;;;;6.63;0.88;;;9.20;99.90;;;;;;5066981;28;20024;-80
2024/02/18 08:48:21;;;;;;;4.13;0.38;;;9.20;99.90;;;;;;5067466;28;20025;-80
2024/02/18 08:50:46;;;;;;;4.40;0.10;;;9.20;99.90;;;;;;5067489;28;20028;-80
2024/02/18 08:53:12;;;;;;;3.55;0.40;;;9.10;99.90;;;;;;5067388;28;20029;-80
2024/02/18 08:55:38;;;;;;;10.18;1.48;;;9.20;99.90;;;;;;5067221;28;20021;-80
2024/02/18 08:58:03;;;;;;;2.53;0.50;;;9.20;99.90;;;;;;5068675;28;20024;-80
2024/02/18 09:00:29;;;;;;;10.65;1.08;;;9.20;99.90;;;;;;5070464;28;20077;-80
2024/02/18 09:02:55;;;;;;;4.07;0.30;;;9.20;99.90;;;;;;5068717;28;20071;-80
2024/02/18 09:05:22;;;;;;;7.20;0.55;;;9.20;99.90;;;;;;5067592;28;20024;-80
2024/02/18 09:07:48;;;;;;;4.80;0.73;;;9.20;99.90;;;;;;5067453;28;20088;-82
2024/02/18 09:10:15;;;;;;;6.13;0.63;;;9.20;99.90;;;;;;5067254;28;20082;-81
2024/02/18 09:12:41;;;;;;;2.92;0.20;;;;;;;;;;5067569;28;20033;-80
2024/02/18 09:15:09;;;;;;;10.70;1.17;;;9.20;99.90;;;;;;5068022;28;20480;-81
2024/02/18 09:17:36;;;;;;;3.83;0.30;;;9.30;99.90;;;;;;5067515;28;20028;-81
2024/02/18 09:20:02;;;;;;;6.35;0.40;;;9.30;99.90;;;;;;5068681;28;20024;-81
2024/02/18 09:22:28;;;;;;;5.72;0.40;;;9.30;99.90;;;;;;5069322;28;20025;-81
2024/02/18 09:24:54;;;;;;;5.43;0.45;;;9.30;99.90;;;;;;5067282;28;20031;-81
2024/02/18 09:27:20;;;;;;;5.55;0.52;;;;;;;;;;5067662;28;20024;-81
2024/02/18 09:29:47;;;;;;;4.45;0.17;;;9.40;99.90;;;;;;5067725;28;20051;-80
2024/02/18 09:32:13;;;;;;;3.90;0.85;;;;;;;;;;5067545;28;20029;-80
2024/02/18 09:34:41;;;;;;;4.78;0.80;;;9.40;99.90;;;;;;5068205;28;20013;-80
2024/02/18 09:37:06;;;;;;;3.75;0.82;;;9.40;99.90;;;;;;5067084;28;20032;-80
2024/02/18 09:39:32;;;;;;;4.53;0.60;;;9.40;99.90;;;;;;5067085;28;20032;-80
2024/02/18 09:41:58;;;;;;;9.73;1.75;;;9.40;99.90;;;;;;5068080;28;20028;-81
2024/02/18 09:44:27;;;;;;;2.05;0.40;;;9.30;99.90;;;;;;5068262;28;20029;-81
2024/02/18 09:46:54;;;;;;;3.67;0.50;;;9.30;99.90;;;;;;5067921;28;20550;-80
2024/02/18 09:49:23;;;;;;;4.07;0.40;;;9.40;99.90;;;;;;5068156;28;20045;-81
2024/02/18 09:51:52;;;;;;;;;;;9.30;99.90;;;;;;5069178;28;20028;-81
2024/02/18 09:54:19;;;;;;;4.93;0.90;;;9.30;99.90;;;;;;5068633;28;19971;-81
2024/02/18 09:56:45;;;;;;;5.30;1.20;;;9.30;99.90;;;;;;5067572;28;20056;-81
2024/02/18 09:59:11;;;;;;;4.63;0.95;;;;;;;;;;5068149;28;20021;-80
2024/02/18 10:01:41;;;;;;;7.30;1.65;;;9.40;99.90;;;;;;5067580;28;20021;-81
2024/02/18 10:04:08;;;;;;;7.32;1.27;;;9.30;99.90;;;;;;5067628;28;20384;-81
2024/02/18 10:06:34;;;;;;;5.05;0.60;;;;;;;;;;5067152;28;20048;-81
2024/02/18 10:09:02;;;;;;;5.95;0.90;;;;;;;;;;5066643;28;20025;-81
2024/02/18 10:11:31;;;;;;;;;;;9.30;99.90;;;;;;5069415;28;20025;-81
2024/02/18 10:13:58;;;;;;;5.13;1.25;;;;;;;;;;5066908;28;19905;-81
2024/02/18 10:16:25;;;;;;;7.28;0.50;;;;;;;;;;5066649;28;20025;-81
2024/02/18 10:18:52;;;;;;;2.70;0.63;;;9.30;99.90;;;;;;5066449;28;20032;-81
2024/02/18 10:21:18;;;;;;;5.95;0.70;;;;;;;;;;5066253;28;20439;-81
2024/02/18 10:23:49;;;;;;;9.23;0.80;;;9.30;99.90;;;;;;5067514;28;20036;-81
2024/02/18 10:26:15;;;;;;;6.32;0.60;;;9.30;99.90;;;;;;5066997;28;20057;-81
2024/02/18 10:28:41;;;;;;;5.10;0.60;;;9.30;99.90;;;;;;5066356;28;20036;-81
2024/02/18 10:31:07;;;;;;;3.90;0.45;;;;;;;;;;5065378;28;20023;-81
2024/02/18 10:33:34;;;;;;;7.10;0.98;;;9.30;99.90;;;;;;5066492;28;20147;-81
2024/02/18 10:36:06;;;;;;;6.60;0.63;;;9.20;99.90;;;;;;5067037;28;20085;-81
2024/02/18 10:38:34;;;;;;;6.68;1.27;;;9.20;99.90;;;;;;5067122;28;20029;-81
2024/02/18 10:41:07;;;;;;;4.60;0.50;;;9.20;99.90;;;;;;5068748;28;20098;-81
2024/02/18 10:43:43;;;;;;;5.38;1.15;;;9.20;99.90;;;;;;5067494;28;20017;-81
2024/02/18 10:46:10;;;;;;;6.55;0.77;;;9.20;99.90;;;;;;5067698;28;20020;-81
2024/02/18 10:48:38;;;;;;;5.45;0.93;;;9.20;99.90;;;;;;5066092;28;20025;-81
2024/02/18 10:51:06;;;;;;;2.13;0.80;;;9.20;99.90;;;;;;5065990;28;20021;-81
2024/02/18 10:53:44;;;;;;;2.73;0.60;;;9.20;99.90;;;;;;5063941;28;20032;-81
2024/02/18 10:56:22;;;;;;;12.52;0.77;;;9.20;99.90;;;;;;5065623;28;20029;-81
2024/02/18 10:59:21;;;;;;;5.70;0.80;;;9.20;99.90;;;;;;5065530;28;20021;-81
2024/02/18 11:02:00;;;;;;;2.85;0.80;;;9.20;99.90;;;;;;5064927;28;20044;-81
2024/02/18 11:04:26;;;;;;;2.80;0.80;;;9.20;99.90;;;;;;5065406;28;20021;-81
2024/02/18 11:06:53;;;;;;;4.55;1.00;;;9.30;99.90;;;;;;5065454;28;20059;-81
2024/02/18 11:09:20;;;;;;;4.43;0.75;;;9.20;99.90;;;;;;5065819;28;20030;-82
2024/02/18 11:11:48;;;;;;;9.30;1.08;;;9.20;99.90;;;;;;5066050;28;20021;-81
2024/02/18 11:14:16;;;;;;;3.80;0.73;;;9.30;99.90;;;;;;5066160;28;20033;-81
2024/02/18 11:16:42;;;;;;;2.03;0.60;;;9.20;99.90;;;;;;5068070;28;20033;-81
2024/02/18 11:19:09;;;;;;;9.13;0.75;;;9.20;99.90;;;;;;5066558;28;20094;-81
2024/02/18 11:21:36;;;;;;;3.67;1.20;;;9.10;99.90;;;;;;5066785;28;20017;-81
2024/02/18 11:24:02;;;;;;;8.93;0.90;;;9.20;99.90;;;;;;5065492;28;20044;-81
2024/02/18 11:26:28;;;;;;;6.10;0.85;;;9.10;99.90;;;;;;5066554;28;20025;-81
2024/02/18 11:29:02;;;;;;;5.53;1.27;;;9.20;99.90;;;;;;5068607;28;20021;-81
2024/02/18 11:31:30;;;;;;;3.63;0.82;;;9.20;99.90;;;;;;5067392;28;20024;-81
2024/02/18 11:33:56;;;;;;;6.07;1.70;;;9.10;99.90;;;;;;5066447;28;20092;-80
2024/02/18 11:36:24;;;;;;;5.68;0.95;;;9.10;99.90;;;;;;5066018;28;20041;-81
2024/02/18 11:38:55;;;;;;;9.15;0.90;;;9.10;99.90;;;;;;5065526;28;20025;-81
2024/02/18 11:41:34;;;;;;;5.47;0.88;;;9.10;99.90;;;;;;5064860;28;20108;-82
2024/02/18 11:44:07;;;;;;;2.67;1.27;;;9.10;99.90;;;;;;5066480;28;20017;-81
2024/02/18 11:46:38;;;;;;;7.93;0.95;;;9.10;99.90;;;;;;5066567;28;20454;-81
2024/02/18 11:49:05;;;;;;;2.55;1.40;;;9.10;99.90;;;;;;5066615;28;20047;-81
2024/02/18 11:51:31;;;;;;;4.47;1.20;;;9.10;99.90;;;;;;5067153;28;20132;-81
2024/02/18 11:53:57;;;;;;;2.50;0.85;;;9.20;99.90;;;;;;5065229;28;20017;-81
2024/02/18 11:56:22;;;;;;;3.20;1.38;;;9.10;99.90;;;;;;5066254;28;20436;-82
2024/02/18 11:58:48;;;;;;;5.40;1.15;;;9.20;99.90;;;;;;5065713;28;20109;-81
2024/02/18 12:01:20;;;;;;;6.35;1.67;;;9.10;99.90;;;;;;5065566;28;20029;-82
2024/02/18 12:03:47;;;;;;;3.88;0.88;;;9.20;99.90;;;;;;5068112;28;20052;-81
2024/02/18 12:06:13;;;;;;;5.60;1.10;;;9.10;99.90;;;;;;5069010;28;20090;-81
2024/02/18 12:08:38;;;;;;;6.90;1.10;;;9.10;99.90;;;;;;5068597;28;20025;-81
2024/02/18 12:11:05;;;;;;;4.53;0.95;;;9.10;99.90;;;;;;5069340;28;20056;-81
2024/02/18 12:13:31;;;;;;;4.43;0.80;;;9.10;99.90;;;;;;5070376;28;20552;-81
2024/02/18 12:16:03;;;;;;;4.00;0.98;;;9.10;99.90;;;;;;5071048;28;20017;-81
2024/02/18 12:18:29;;;;;;;2.30;0.50;;;9.10;99.90;;;;;;5071625;28;20031;-81
2024/02/18 12:20:55;;;;;;;5.32;0.45;;;9.10;99.90;;;;;;5071194;28;20016;-81
2024/02/18 12:23:21;;;;;;;2.05;0.55;;;9.10;99.90;;;;;;5068464;28;20029;-81
2024/02/18 12:25:48;;;;;;;6.20;0.70;;;9.10;99.90;;;;;;5069655;28;20008;-81
2024/02/18 12:28:14;;;;;;;0.63;0.43;;;9.20;99.90;;;;;;5069718;28;20040;-81
2024/02/18 12:30:41;;;;;;;2.65;0.73;;;9.20;99.90;;;;;;5071160;28;20024;-82
2024/02/18 12:33:06;;;;;;;3.70;1.13;;;9.20;99.90;;;;;;5070251;28;20441;-81
2024/02/18 12:35:33;;;;;;;3.58;0.93;;;9.20;99.90;;;;;;5070777;28;20021;-81
2024/02/18 12:38:05;;;;;;;4.35;0.47;;;9.10;99.90;;;;;;5069949;28;20032;-81
2024/02/18 12:40:34;;;;;;;5.75;0.57;;;9.10;99.90;;;;;;5070607;28;20025;-82
2024/02/18 12:43:03;;;;;;;7.07;1.15;;;;;;;;;;5070983;28;20060;-81
2024/02/18 12:45:29;;;;;;;5.78;0.60;;;9.20;99.90;;;;;;5069800;28;20029;-81
2024/02/18 12:47:56;;;;;;;2.33;0.50;;;9.20;99.90;;;;;;5069288;28;20028;-81
2024/02/18 12:50:28;;;;;;;5.10;0.30;;;9.20;99.90;;;;;;5071258;28;20048;-82
2024/02/18 12:52:56;;;;;;;4.28;0.50;;;;;;;;;;5069523;28;20017;-81
2024/02/18 12:55:22;;;;;;;0.73;0.13;;;;;;;;;;5070266;28;20021;-81
2024/02/18 12:57:48;;;;;;;0.75;0.10;;;9.30;99.90;;;;;;5069870;28;20443;-82
2024/02/18 13:00:15;;;;;;;2.90;0.10;;;9.30;99.90;;;;;;5070037;28;20020;-81
2024/02/18 13:02:44;;;;;;;1.05;0.22;;;9.30;99.90;;;;;;5069370;28;20017;-81